createdAt,value
2022-11-08T00:01:29.921Z,61.95
2022-11-08T00:06:51.406Z,61.87
2022-11-08T00:12:12.937Z,61.44
2022-11-08T00:17:17.697Z,61.61
2022-11-08T00:22:21.092Z,61.23
2022-11-08T00:27:25.306Z,61.27
2022-11-08T00:32:28.702Z,61.60
2022-11-08T00:37:31.855Z,61.56
2022-11-08T00:42:34.773Z,61.72
2022-11-08T00:47:37.667Z,61.72
2022-11-08T00:52:40.576Z,61.93
2022-11-08T00:58:00.382Z,61.66
2022-11-08T01:03:18.922Z,61.95
2022-11-08T01:08:23.207Z,61.97
2022-11-08T01:13:26.261Z,61.95
2022-11-08T01:18:29.192Z,62.03
2022-11-08T01:23:34.176Z,62.04
2022-11-08T01:28:37.415Z,62.01
2022-11-08T01:33:40.522Z,62.23
2022-11-08T01:38:43.574Z,61.97
2022-11-08T01:43:55.616Z,61.95
2022-11-08T01:49:12.015Z,62.18
2022-11-08T01:54:21.302Z,61.96
2022-11-08T01:59:24.870Z,62.05
2022-11-08T02:04:30.550Z,61.74
2022-11-08T02:09:38.041Z,62.12
2022-11-08T02:14:40.987Z,62.06
2022-11-08T02:19:47.196Z,61.99
2022-11-08T02:24:50.189Z,62.39
2022-11-08T02:29:54.834Z,62.21
2022-11-08T02:35:02.997Z,62.29
2022-11-08T02:40:09.043Z,61.98
2022-11-08T02:45:12.072Z,61.96
2022-11-08T02:50:14.981Z,61.75
2022-11-08T02:55:17.911Z,61.93
2022-11-08T03:00:21.019Z,61.71
2022-11-08T03:05:25.346Z,61.73
2022-11-08T03:10:29.018Z,61.77
2022-11-08T03:15:32.931Z,61.92
2022-11-08T03:20:35.898Z,61.68
2022-11-08T03:25:38.795Z,62.09
2022-11-08T03:30:42.036Z,62.07
2022-11-08T03:35:44.918Z,62.21
2022-11-08T03:40:48.128Z,62.18
2022-11-08T03:45:51.000Z,62.29
2022-11-08T03:50:53.898Z,61.82
2022-11-08T03:55:59.938Z,62.14
2022-11-08T04:01:07.168Z,62.12
2022-11-08T04:06:10.678Z,62.19
2022-11-08T04:11:32.115Z,62.20
2022-11-08T04:16:35.167Z,62.72
2022-11-08T04:21:38.148Z,62.33
2022-11-08T04:26:41.338Z,62.56
2022-11-08T04:31:44.202Z,62.38
2022-11-08T04:36:47.137Z,62.68
2022-11-08T04:41:50.003Z,62.82
2022-11-08T04:46:53.040Z,62.96
2022-11-08T04:51:56.173Z,62.86
2022-11-08T04:56:59.099Z,62.63
2022-11-08T05:02:03.398Z,62.57
2022-11-08T05:07:06.672Z,62.70
2022-11-08T05:12:09.526Z,62.44
2022-11-08T05:17:12.531Z,62.45
2022-11-08T05:22:34.019Z,62.86
2022-11-08T05:27:36.952Z,62.84
2022-11-08T05:32:39.844Z,62.71
2022-11-08T05:37:42.718Z,62.74
2022-11-08T05:42:45.593Z,62.63
2022-11-08T05:47:48.554Z,62.56
2022-11-08T05:52:54.362Z,63.23
2022-11-08T05:57:57.404Z,63.15
2022-11-08T06:03:03.737Z,62.71
2022-11-08T06:08:06.673Z,62.96
2022-11-08T06:13:09.531Z,63.31
2022-11-08T06:18:12.437Z,63.38
2022-11-08T06:23:15.485Z,63.40
2022-11-08T06:28:19.004Z,63.32
2022-11-08T06:33:22.340Z,62.99
2022-11-08T06:38:25.847Z,63.30
2022-11-08T06:43:29.025Z,63.38
2022-11-08T06:48:35.873Z,63.38
2022-11-08T06:53:39.292Z,63.41
2022-11-08T06:58:42.574Z,63.59
2022-11-08T07:03:45.744Z,63.77
2022-11-08T07:08:49.058Z,63.41
2022-11-08T07:13:52.010Z,63.69
2022-11-08T07:18:55.840Z,64.22
2022-11-08T07:23:58.987Z,63.93
2022-11-08T07:29:02.288Z,63.84
2022-11-08T07:34:05.133Z,64.12
2022-11-08T07:39:08.061Z,64.26
2022-11-08T07:44:11.031Z,64.32
2022-11-08T07:49:14.027Z,64.67
2022-11-08T07:54:17.279Z,64.74
2022-11-08T07:59:20.132Z,64.88
2022-11-08T08:04:23.079Z,64.89
2022-11-08T08:09:26.072Z,64.81
2022-11-08T08:14:29.092Z,65.13
2022-11-08T08:19:32.153Z,65.37
2022-11-08T08:24:35.245Z,65.06
2022-11-08T08:29:38.204Z,64.77
2022-11-08T08:34:41.167Z,64.58
2022-11-08T08:39:44.303Z,64.30
2022-11-08T08:44:47.225Z,64.50
2022-11-08T08:49:50.263Z,64.23
2022-11-08T08:54:53.175Z,64.02
2022-11-08T09:05:19.294Z,63.71
2022-11-08T09:10:22.622Z,63.33
2022-11-08T09:15:25.577Z,63.32
2022-11-08T09:20:28.718Z,62.95
2022-11-08T09:25:31.922Z,62.40
2022-11-08T09:30:35.074Z,61.91
2022-11-08T09:35:38.289Z,61.89
2022-11-08T09:40:55.579Z,61.52
2022-11-08T09:45:59.147Z,61.35
2022-11-08T09:51:17.464Z,60.98
2022-11-08T09:56:28.447Z,60.58
2022-11-08T10:01:46.570Z,60.36
2022-11-08T10:07:07.824Z,60.02
2022-11-08T10:12:15.303Z,59.76
2022-11-08T10:17:36.351Z,59.28
2022-11-08T10:22:48.035Z,59.11
2022-11-08T10:27:54.877Z,58.86
2022-11-08T10:32:58.110Z,58.34
2022-11-08T10:38:03.436Z,57.93
2022-11-08T10:43:14.632Z,57.42
2022-11-08T10:48:17.928Z,56.78
2022-11-08T10:53:32.062Z,56.17
2022-11-08T10:58:40.890Z,55.50
2022-11-08T11:04:09.710Z,55.04
2022-11-08T11:09:24.291Z,54.59
2022-11-08T11:14:27.344Z,54.24
2022-11-08T11:19:30.772Z,53.70
2022-11-08T11:24:45.992Z,53.33
2022-11-08T11:29:48.914Z,52.93
2022-11-08T11:34:59.612Z,52.70
2022-11-08T11:40:30.136Z,52.51
2022-11-08T11:45:45.167Z,52.08
2022-11-08T11:50:50.107Z,51.62
2022-11-08T11:56:05.510Z,51.39
2022-11-08T12:01:33.146Z,51.00
2022-11-08T12:06:46.635Z,50.69
2022-11-08T12:11:55.065Z,50.60
2022-11-08T12:17:01.080Z,52.49
2022-11-08T12:22:25.747Z,53.92
2022-11-08T12:27:43.394Z,53.74
2022-11-08T12:33:14.678Z,53.18
2022-11-08T12:38:31.356Z,53.20
2022-11-08T12:44:01.456Z,53.04
2022-11-08T12:49:16.397Z,52.63
2022-11-08T12:54:21.617Z,52.03
2022-11-08T12:59:29.297Z,51.25
2022-11-08T13:04:51.111Z,51.40
2022-11-08T13:10:04.946Z,51.58
2022-11-08T13:15:25.117Z,51.57
2022-11-08T13:20:48.516Z,51.18
2022-11-08T13:25:53.044Z,51.06
2022-11-08T13:31:02.551Z,50.54
2022-11-08T13:36:47.248Z,49.23
2022-11-08T13:42:24.960Z,48.72
2022-11-08T13:47:33.584Z,48.88
2022-11-08T13:52:56.851Z,49.33
2022-11-08T13:54:01.032Z,49.54
2022-11-08T13:55:03.860Z,49.36
2022-11-08T13:56:06.607Z,49.38
2022-11-08T13:57:09.279Z,49.52
2022-11-08T13:59:20.055Z,49.32
2022-11-08T14:00:24.690Z,49.38
2022-11-08T14:01:51.001Z,49.38
2022-11-08T14:02:53.781Z,49.31
2022-11-08T14:03:56.506Z,49.47
2022-11-08T14:05:01.638Z,49.41
2022-11-08T14:06:06.653Z,49.46
2022-11-08T14:07:09.631Z,49.42
2022-11-08T14:17:12.280Z,48.84
2022-11-08T14:22:15.369Z,48.62
2022-11-08T14:27:18.065Z,48.69
2022-11-08T14:32:20.717Z,49.08
2022-11-08T14:37:23.415Z,49.61
2022-11-08T14:42:26.174Z,49.82
2022-11-08T14:47:30.347Z,50.02
2022-11-08T14:52:33.183Z,50.23
2022-11-08T14:57:36.349Z,50.54
2022-11-08T15:02:39.399Z,50.80
2022-11-08T15:07:42.151Z,51.13
2022-11-08T15:12:44.917Z,51.43
2022-11-08T15:17:47.623Z,51.73
2022-11-08T15:22:55.458Z,51.91
2022-11-08T15:27:59.300Z,52.34
2022-11-08T15:33:03.418Z,52.63
2022-11-08T15:38:06.100Z,52.95
2022-11-08T15:43:08.785Z,53.31
2022-11-08T15:48:11.707Z,53.39
2022-11-08T15:53:14.945Z,53.71
2022-11-08T15:58:17.838Z,53.89
2022-11-08T16:03:20.721Z,54.11
2022-11-08T16:08:25.694Z,54.40
2022-11-08T16:13:28.699Z,54.50
2022-11-08T16:18:34.277Z,54.74
2022-11-08T16:23:37.098Z,55.01
2022-11-08T16:28:40.031Z,55.24
2022-11-08T16:33:43.017Z,55.63
2022-11-08T16:38:45.709Z,55.87
2022-11-08T16:43:48.402Z,55.95
2022-11-08T16:48:51.099Z,56.16
2022-11-08T16:53:53.975Z,56.21
2022-11-08T16:58:56.827Z,56.43
2022-11-08T17:03:59.555Z,56.61
2022-11-08T17:09:02.368Z,56.56
2022-11-08T17:14:05.435Z,56.93
2022-11-08T17:19:08.539Z,57.02
2022-11-08T17:24:11.195Z,57.17
2022-11-08T17:29:13.966Z,57.06
2022-11-08T17:34:16.716Z,57.36
2022-11-08T17:39:19.421Z,57.37
2022-11-08T17:44:22.323Z,57.51
2022-11-08T17:49:24.971Z,57.73
2022-11-08T17:54:27.671Z,57.93
2022-11-08T17:59:30.403Z,58.72
2022-11-08T18:04:33.115Z,58.28
2022-11-08T18:09:35.816Z,58.11
2022-11-08T18:14:38.596Z,58.43
2022-11-08T18:19:41.336Z,58.09
2022-11-08T18:24:47.441Z,58.38
2022-11-08T18:29:52.697Z,58.41
2022-11-08T18:34:56.657Z,58.56
2022-11-08T18:39:59.390Z,58.49
2022-11-08T18:45:02.275Z,58.62
2022-11-08T18:50:05.626Z,59.48
2022-11-08T18:55:08.332Z,59.11
2022-11-08T19:00:11.013Z,59.34
2022-11-08T19:05:14.063Z,59.27
2022-11-08T19:10:25.886Z,59.46
2022-11-08T19:15:28.625Z,59.47
2022-11-08T19:20:31.322Z,59.96
2022-11-08T19:25:36.101Z,59.84
2022-11-08T19:30:39.133Z,60.02
2022-11-08T19:35:41.827Z,59.92
2022-11-08T19:40:47.355Z,59.95
2022-11-08T19:45:52.479Z,59.73
2022-11-08T19:50:55.814Z,59.79
2022-11-08T19:55:59.356Z,59.94
2022-11-08T20:01:02.866Z,59.75
2022-11-08T20:06:06.089Z,59.60
2022-11-08T20:11:09.448Z,59.75
2022-11-08T20:16:12.736Z,59.80
2022-11-08T20:21:15.840Z,60.49
2022-11-08T20:26:18.835Z,59.91
2022-11-08T20:31:23.018Z,60.24
2022-11-08T20:36:25.898Z,60.28
2022-11-08T20:41:30.070Z,60.37
2022-11-08T20:46:33.295Z,60.19
2022-11-08T20:51:36.125Z,60.51
2022-11-08T20:56:38.881Z,60.96
2022-11-08T21:01:41.888Z,60.10
2022-11-08T21:06:44.652Z,59.86
2022-11-08T21:11:47.633Z,59.98
2022-11-08T21:22:16.677Z,59.86
2022-11-08T21:27:19.473Z,60.43
2022-11-08T21:32:22.319Z,60.39
2022-11-08T21:37:25.008Z,60.28
2022-11-08T21:42:27.893Z,60.33
2022-11-08T21:47:30.664Z,60.69
2022-11-08T21:52:33.409Z,60.67
2022-11-08T21:57:36.137Z,60.49
2022-11-08T22:02:38.843Z,60.38
2022-11-08T22:07:41.626Z,60.51
2022-11-08T22:12:44.443Z,60.45
2022-11-08T22:18:14.456Z,60.47
2022-11-08T22:23:10.101Z,60.78
2022-11-08T22:28:12.869Z,60.71
2022-11-08T22:33:15.809Z,60.53
2022-11-08T22:38:19.059Z,60.42
2022-11-08T22:43:21.950Z,60.57
2022-11-08T22:48:24.762Z,60.62
2022-11-08T22:53:27.624Z,60.84
2022-11-08T22:58:30.414Z,60.69
2022-11-08T23:03:33.496Z,60.81
2022-11-08T23:08:36.320Z,60.90
2022-11-08T23:13:58.026Z,60.91
2022-11-08T23:19:19.307Z,60.91
2022-11-08T23:24:22.149Z,60.87
2022-11-08T23:29:43.246Z,60.84
2022-11-08T23:34:46.058Z,60.94
2022-11-08T23:40:07.151Z,60.80
2022-11-08T23:45:09.947Z,60.86
2022-11-08T23:50:12.652Z,60.85
2022-11-08T23:55:15.308Z,60.81
